^^

..:: Storico WU ::..




Lo storico viene creato da WUnderground con i dati che la stazione Meteomincio invia al loro server. L' aggiornamento viene fatto ogni 5 minuti circa, tuttavia possono esserci intervalli pi¨ ampi a causa di errori, interruzioni di servizio o problemi nell' invio tramite FTP.


Storico stazione MeteoMincio
Giorno Sommario per Agosto 28, 2022 Unità:  Inglese    Metrico   Entrambi
Giorno Settimana Mese Anno
  Max: Min: Media:
Temperatura: 85.5 °F 64.8 °F 74.7 °F
Dew Point: 72.3 °F 62.8 °F 67.5 °F
Umidità: 93.7% 57.3% 80%
Velocità vento: 6.1mph 0mph 1.5mph
Raffica: 13mph - -
Direzione- - SE
Pressione: 30 in 29.9 in -
Precipitazioni: 0 in    
 
 
Tabulato Dati per Agosto 28, 2022
Ora Temperatura Dew Point Pressione Direzione Velocità vento Raffica Umidità Intensità pioggia (oraria) Info solare Situazione
00:04 67.6 °F 64.6 °F 29.9 in NNW 1.2 mph 2.3 mph 90% 0 in 0 W/m2
00:09 67.6 °F 64.8 °F 29.9 in North 0.6 mph 2.3 mph 90.6% 0 in 0 W/m2
00:14 67.6 °F 64.9 °F 29.9 in North 0.6 mph 2.3 mph 91% 0 in 0 W/m2
00:19 67.6 °F 64.9 °F 29.9 in North 0.4 mph 2.3 mph 91% 0 in 0 W/m2
00:24 67.6 °F 64.9 °F 29.9 in North 0.4 mph 2 mph 91% 0 in 0 W/m2
00:29 67.5 °F 64.8 °F 29.9 in North 0.5 mph 1.2 mph 91% 0 in 0 W/m2
00:34 67.6 °F 64.9 °F 29.9 in North 0.1 mph 1.2 mph 91% 0 in 0 W/m2
00:39 67.5 °F 64.8 °F 29.9 in Calm   1.2 mph 91% 0 in 0 W/m2
00:44 67.5 °F 64.8 °F 29.9 in North 0.1 mph 1.2 mph 91% 0 in 0 W/m2
00:49 67.3 °F 64.6 °F 29.9 in North 0.4 mph 1.2 mph 91.5% 0 in 0 W/m2
00:54 67.1 °F 64.6 °F 29.9 in North 0.1 mph 1.2 mph 91.7% 0 in 0 W/m2
00:59 67.1 °F 64.6 °F 29.9 in North 0.1 mph 1.2 mph 92% 0 in 0 W/m2
01:04 66.9 °F 64.6 °F 29.9 in NNE 1.2 mph 3 mph 92% 0 in 0 W/m2
01:09 67.1 °F 64.6 °F 29.9 in NNE 1.4 mph 3.5 mph 92% 0 in 0 W/m2
01:14 67.1 °F 64.8 °F 29.9 in NNE 0.6 mph 3.5 mph 92% 0 in 0 W/m2
01:19 67.1 °F 64.8 °F 29.9 in NNE 0.5 mph 2.3 mph 92% 0 in 0 W/m2
01:24 67.1 °F 64.8 °F 29.9 in NE 1.5 mph 3.5 mph 92% 0 in 0 W/m2
01:29 67.1 °F 64.8 °F 29.9 in NNE 1.6 mph 3.5 mph 92% 0 in 0 W/m2
01:34 67.3 °F 64.9 °F 29.9 in NNE 2.1 mph 4 mph 92% 0 in 0 W/m2
01:39 67.5 °F 64.9 °F 29.9 in NNE 2.5 mph 4 mph 92% 0 in 0 W/m2
01:44 67.6 °F 65.1 °F 29.9 in NE 1.6 mph 3.5 mph 92% 0 in 0 W/m2
01:49 67.6 °F 65.3 °F 29.9 in NE 0.7 mph 3.5 mph 92% 0 in 0 W/m2
01:54 67.6 °F 65.3 °F 29.9 in NNE 0.6 mph 3.5 mph 92% 0 in 0 W/m2
01:59 68 °F 65.3 °F 29.9 in NNE 0.9 mph 3.5 mph 91.5% 0 in 0 W/m2
02:04 68 °F 65.3 °F 29.9 in NNE 1.4 mph 3.5 mph 91% 0 in 0 W/m2
02:09 68.2 °F 65.5 °F 29.9 in NNE 0.9 mph 3.5 mph 91% 0 in 0 W/m2
02:14 68.4 °F 65.7 °F 29.9 in North 0.2 mph 3 mph 91% 0 in 0 W/m2
02:19 68.4 °F 65.7 °F 29.9 in North 0.2 mph 1.2 mph 91% 0 in 0 W/m2
02:24 68.4 °F 65.7 °F 29.9 in NNE 0.7 mph 2 mph 91% 0 in 0 W/m2
02:29 68.2 °F 65.5 °F 29.9 in NE 0.9 mph 2.3 mph 91% 0 in 0 W/m2
02:34 68.2 °F 65.5 °F 29.9 in NE 0.2 mph 2.3 mph 91% 0 in 0 W/m2
02:39 68.2 °F 65.5 °F 29.9 in NE 0.2 mph 1.2 mph 91% 0 in 0 W/m2
02:44 68 °F 65.3 °F 29.9 in NE 0.1 mph 1.2 mph 91% 0 in 0 W/m2
02:49 67.8 °F 65.1 °F 29.9 in Calm   1 mph 91% 0 in 0 W/m2
02:54 67.6 °F 64.9 °F 29.9 in NNE 0.2 mph 2 mph 91.3% 0 in 0 W/m2
02:59 67.6 °F 65.3 °F 29.9 in NNE 0.7 mph 2.3 mph 92% 0 in 0 W/m2
03:04 67.8 °F 65.3 °F 29.9 in NNE 0.4 mph 2.3 mph 91.2% 0 in 0 W/m2
03:09 67.8 °F 65.1 °F 29.9 in NE 0.4 mph 2.3 mph 91% 0 in 0 W/m2
03:14 67.8 °F 65.1 °F 29.9 in NE 1.2 mph 2.3 mph 91% 0 in 0 W/m2
03:19 67.8 °F 65.1 °F 29.9 in NE 0.4 mph 2 mph 91% 0 in 0 W/m2
03:24 67.8 °F 65.1 °F 29.9 in Calm   1 mph 91% 0 in 0 W/m2
03:29 67.8 °F 65.1 °F 29.9 in NE 0.2 mph 1.2 mph 91% 0 in 0 W/m2
03:34 67.8 °F 65.1 °F 29.9 in NE 0.2 mph 1.2 mph 91% 0 in 0 W/m2
03:39 67.8 °F 65.1 °F 29.9 in NE 0.1 mph 1.2 mph 91.2% 0 in 0 W/m2
03:44 67.6 °F 64.9 °F 29.9 in NE 0.1 mph 1.2 mph 91% 0 in 0 W/m2
03:49 67.5 °F 64.9 °F 29.9 in NE 0.1 mph 1.2 mph 91.3% 0 in 0 W/m2
03:54 67.3 °F 64.9 °F 29.9 in NE 0.1 mph 1.2 mph 91.8% 0 in 0 W/m2
03:59 67.3 °F 64.9 °F 29.9 in NE 0.1 mph 1.2 mph 92% 0 in 0 W/m2
04:04 67.5 °F 64.9 °F 29.9 in Calm   1.2 mph 92% 0 in 0 W/m2
04:07 67.3 °F 64.9 °F 29.9 in NE 0.1 mph 1.2 mph 92% 0 in 0 W/m2
04:13 67.3 °F 64.9 °F 29.9 in NE 0.1 mph 1.2 mph 92% 0 in 0 W/m2
04:17 67.1 °F 64.8 °F 29.9 in Calm   1.2 mph 92% 0 in 0 W/m2
04:23 67.1 °F 64.6 °F 29.9 in Calm     92% 0 in 0 W/m2
04:28 66.7 °F 64.4 °F 29.9 in Calm     92% 0 in 0 W/m2
04:33 66.7 °F 64.2 °F 29.9 in Calm     92% 0 in 0 W/m2
04:38 66.6 °F 64.2 °F 29.9 in SW 0.4 mph 2 mph 92% 0 in 0 W/m2
04:43 66.4 °F 64 °F 29.9 in SW 1.1 mph 2.3 mph 92% 0 in 0 W/m2
04:49 66 °F 63.7 °F 29.9 in SW 1.1 mph 2.3 mph 92% 0 in 0 W/m2
04:53 65.8 °F 63.3 °F 29.9 in SW 1.1 mph 2.3 mph 92.1% 0 in 0 W/m2
04:58 65.8 °F 63.5 °F 29.9 in SW 0.9 mph 2.3 mph 92.6% 0 in 0 W/m2
05:03 65.8 °F 63.7 °F 29.9 in SW 0.6 mph 2.3 mph 93% 0 in 0 W/m2
05:09 65.8 °F 63.7 °F 29.9 in WSW 0.6 mph 2.3 mph 93% 0 in 0 W/m2
05:14 65.8 °F 63.7 °F 29.9 in West 0.8 mph 2.3 mph 92.8% 0 in 0 W/m2
05:19 65.7 °F 63.3 °F 29.9 in West 0.7 mph 2.3 mph 92.4% 0 in 0 W/m2
05:24 65.3 °F 63 °F 29.9 in WSW 1 mph 2.3 mph 92% 0 in 0 W/m2
05:29 65.1 °F 63.1 °F 29.9 in WSW 1.1 mph 2.3 mph 93% 0 in 0 W/m2
05:34 65.1 °F 63.1 °F 29.9 in West 1.1 mph 2.3 mph 93% 0 in 0 W/m2
05:39 65.3 °F 63.1 °F 29.9 in West 1.1 mph 2.3 mph 93% 0 in 0 W/m2
05:44 65.3 °F 63.3 °F 29.9 in West 0.9 mph 2.3 mph 93% 0 in 0 W/m2
05:49 65.1 °F 63.1 °F 29.9 in West 1.3 mph 2.3 mph 93% 0 in 0 W/m2
05:54 64.9 °F 63 °F 29.9 in West 1.1 mph 2.3 mph 93% 0 in 0 W/m2
05:59 65.1 °F 63 °F 29.9 in West 0.1 mph 2.3 mph 93% 0 in 0 W/m2
06:04 65.1 °F 63 °F 29.9 in West 0.1 mph 1.2 mph 93% 0 in 0 W/m2
06:09 65.1 °F 63 °F 29.9 in WSW 0.4 mph 3 mph 93% 0 in 0 W/m2
06:14 64.9 °F 63 °F 29.9 in WSW 1.1 mph 3.5 mph 93% 0 in 0 W/m2
06:19 64.8 °F 62.8 °F 29.9 in WSW 1.2 mph 3.5 mph 93% 0 in 0 W/m2
06:24 64.9 °F 62.8 °F 29.9 in WSW 0.8 mph 3 mph 93% 0 in 0 W/m2
06:29 64.8 °F 62.8 °F 29.9 in WNW 0.5 mph 2.3 mph 93.3% 0 in 0 W/m2
06:34 64.9 °F 63 °F 29.9 in WNW 0.3 mph 2.3 mph 93.4% 0 in 0 W/m2
06:39 65.1 °F 63 °F 29.9 in Calm   2 mph 93.2% 0 in 5 W/m2
06:44 65.1 °F 63.1 °F 29.9 in Calm     93.7% 0 in 7 W/m2
06:49 65.1 °F 63.1 °F 29.9 in Calm     93.4% 0 in 11 W/m2
06:54 65.3 °F 63.3 °F 29.9 in WNW 0.2 mph 2.3 mph 93.5% 0 in 16 W/m2
06:59 65.3 °F 63.1 °F 29.9 in West 0.6 mph 2.3 mph 93% 0 in 21 W/m2
07:04 65.1 °F 63 °F 29.9 in WSW 0.6 mph 2.3 mph 93% 0 in 25 W/m2
07:09 65.1 °F 63 °F 29.9 in WSW 0.8 mph 2.3 mph 93% 0 in 28 W/m2
07:14 65.3 °F 63.1 °F 29.9 in WSW 0.7 mph 2.3 mph 93% 0 in 37 W/m2
07:19 65.3 °F 63.3 °F 29.9 in WSW 0.4 mph 2 mph 93% 0 in 42 W/m2
07:24 65.5 °F 63.5 °F 29.9 in WSW 0.4 mph 3.5 mph 93% 0 in 53 W/m2
07:29 65.8 °F 63.7 °F 29.9 in West 1.2 mph 3.5 mph 93% 0 in 62 W/m2
07:34 66 °F 64 °F 29.9 in West 1.7 mph 3.5 mph 93% 0 in 72 W/m2
07:39 66.6 °F 64.2 °F 29.9 in West 1.7 mph 3.5 mph 92.6% 0 in 83 W/m2
07:44 66.9 °F 64.4 °F 29.9 in WNW 1.2 mph 3.5 mph 92% 0 in 98 W/m2
07:49 67.1 °F 64.8 °F 29.9 in West 1.2 mph 3.5 mph 91.9% 0 in 113 W/m2
07:54 67.6 °F 64.9 °F 29.9 in West 0.8 mph 3.5 mph 91% 0 in 144 W/m2
07:59 68.4 °F 65.7 °F 29.9 in NW 0.3 mph 2 mph 90.7% 0 in 183 W/m2
08:04 69.3 °F 66.2 °F 29.9 in NW 0.9 mph 2.3 mph 90% 0 in 209 W/m2
08:09 69.8 °F 66.4 °F 29.9 in WNW 0.7 mph 2.3 mph 89.1% 0 in 213 W/m2
08:14 70 °F 66.4 °F 29.9 in West 1.3 mph 3.5 mph 88.3% 0 in 227 W/m2
08:19 70.3 °F 66.7 °F 29.9 in West 1.7 mph 3.5 mph 88.4% 0 in 220 W/m2
08:24 70.7 °F 67.1 °F 29.9 in WSW 1.7 mph 3.5 mph 88% 0 in 221 W/m2
08:29 70.9 °F 67.3 °F 29.9 in WSW 1.9 mph 3.5 mph 88% 0 in 137 W/m2
08:34 71.1 °F 67.3 °F 29.9 in WSW 1.9 mph 3.5 mph 88% 0 in 214 W/m2
08:39 71.1 °F 67.3 °F 29.9 in WSW 1.8 mph 3.5 mph 87.6% 0 in 195 W/m2
08:44 71.2 °F 67.3 °F 29.9 in West 1.7 mph 3.5 mph 87.4% 0 in 142 W/m2
08:49 71.2 °F 67.1 °F 29.9 in West 1.1 mph 3 mph 86.8% 0 in 153 W/m2
08:52 71.4 °F 67.1 °F 29.9 in NW 0.9 mph 2.3 mph 86.4% 0 in 160 W/m2
08:59 71.4 °F 67.1 °F 29.9 in WNW 1.2 mph 2.3 mph 86% 0 in 162 W/m2
09:04 71.6 °F 67.1 °F 29.9 in NW 1.7 mph 4 mph 85.5% 0 in 186 W/m2
09:09 71.8 °F 67.3 °F 29.9 in NW 1.1 mph 3.5 mph 85.7% 0 in 200 W/m2
09:14 72.1 °F 67.3 °F 29.9 in NW 1.5 mph 3.5 mph 85% 0 in 200 W/m2
09:19 72.1 °F 67.3 °F 29.9 in NW 2.1 mph 4 mph 85% 0 in 195 W/m2
09:24 72.1 °F 67.5 °F 29.9 in North 1.1 mph 4 mph 85.3% 0 in 193 W/m2
09:29 72.3 °F 67.8 °F 29.9 in North 0.6 mph 3.5 mph 85.7% 0 in 188 W/m2
09:34 72.5 °F 67.6 °F 29.9 in NE 1.2 mph 3.5 mph 85% 0 in 221 W/m2
09:39 72.5 °F 67.8 °F 29.9 in East 2 mph 4 mph 85.3% 0 in 262 W/m2
09:44 72.9 °F 68.2 °F 29.9 in ENE 2.9 mph 4 mph 85% 0 in 461 W/m2
09:49 72.9 °F 68 °F 29.9 in ENE 3.1 mph 5 mph 84.4% 0 in 288 W/m2
09:54 72.7 °F 67.6 °F 29.9 in East 2.9 mph 5 mph 84.4% 0 in 181 W/m2
09:59 72.7 °F 67.6 °F 29.9 in East 1.4 mph 5 mph 84% 0 in 192 W/m2
10:04 72.7 °F 68 °F 29.9 in ESE 0.7 mph 2.3 mph 84.9% 0 in 206 W/m2
10:09 72.7 °F 67.6 °F 29.9 in ESE 0.6 mph 2.3 mph 84.2% 0 in 221 W/m2
10:14 72.9 °F 67.8 °F 29.9 in East 0.4 mph 2.3 mph 84% 0 in 260 W/m2
10:19 73.2 °F 68.4 °F 29.9 in East 0.8 mph 2.3 mph 85.1% 0 in 294 W/m2
10:24 73.8 °F 68.7 °F 29.9 in NE 1.6 mph 2.3 mph 84.2% 0 in 357 W/m2
10:28 73.6 °F 68 °F 29.9 in East 0.9 mph 2.3 mph 82.3% 0 in 304 W/m2
10:34 73.9 °F 68.2 °F 29.9 in ENE 1.3 mph 3.5 mph 82.3% 0 in 339 W/m2
10:39 74.3 °F 68.2 °F 29.9 in East 1.3 mph 3.5 mph 81.4% 0 in 297 W/m2
10:44 74.3 °F 68 °F 29.9 in East 0.6 mph 3.5 mph 81.3% 0 in 274 W/m2
10:49 74.5 °F 68.5 °F 29.9 in South 0.2 mph 2 mph 82% 0 in 684 W/m2
10:54 74.8 °F 68.2 °F 29.9 in ESE 0.5 mph 2.3 mph 80.2% 0 in 396 W/m2
10:59 74.7 °F 67.8 °F 29.9 in East 1.2 mph 3.5 mph 79.6% 0 in 299 W/m2
11:04 75.4 °F 68.5 °F 29.9 in ESE 0.6 mph 3.5 mph 79.6% 0 in 659 W/m2
11:09 75.9 °F 68.5 °F 29.9 in ENE 0.7 mph 3.5 mph 78.2% 0 in 659 W/m2
11:14 76.1 °F 67.5 °F 29.9 in ENE 1.3 mph 3.5 mph 74.9% 0 in 715 W/m2
11:19 76.5 °F 67.5 °F 29.9 in ENE 1.1 mph 2.3 mph 73.7% 0 in 715 W/m2
11:24 77.4 °F 68.2 °F 29.9 in North 1 mph 2.3 mph 73.3% 0 in 691 W/m2
11:29 77.5 °F 68.5 °F 29.9 in North 0.6 mph 2 mph 73.9% 0 in 686 W/m2
11:34 77.9 °F 68.4 °F 29.9 in SW 0.7 mph 2.3 mph 72.8% 0 in 684 W/m2
11:39 78.6 °F 68.2 °F 29.9 in ESE 1 mph 3.5 mph 70.5% 0 in 693 W/m2
11:44 79 °F 67.5 °F 29.9 in NE 1.9 mph 4 mph 68% 0 in 693 W/m2
11:49 79 °F 67.6 °F 29.9 in ENE 2.9 mph 4 mph 68.3% 0 in 705 W/m2
11:54 79.3 °F 68.9 °F 29.9 in North 2.9 mph 4 mph 70.7% 0 in 703 W/m2
11:59 79.9 °F 68 °F 29.9 in North 2.7 mph 5 mph 67.3% 0 in 708 W/m2
12:04 80.1 °F 68.2 °F 29.9 in East 3.4 mph 5 mph 67% 0 in 708 W/m2
12:09 79.5 °F 67.8 °F 29.9 in East 2.9 mph 5 mph 67.6% 0 in 710 W/m2
12:14 80.2 °F 68.7 °F 29.9 in North 2.4 mph 5 mph 68% 0 in 693 W/m2
12:19 80.2 °F 67.6 °F 29.9 in NNW 1.6 mph 4 mph 65.6% 0 in 700 W/m2
12:24 80.1 °F 68.4 °F 29.9 in WNW 1.2 mph 6 mph 67.6% 0 in 731 W/m2
12:29 81 °F 68.4 °F 29.9 in NNE 1.9 mph 6 mph 65.8% 0 in 729 W/m2
12:34 81.1 °F 68.7 °F 29.9 in East 1.9 mph 6 mph 65.8% 0 in 735 W/m2
12:39 80.6 °F 67.8 °F 29.9 in ESE 2.9 mph 5 mph 65% 0 in 737 W/m2
12:44 80.4 °F 67.8 °F 29.9 in SE 3.2 mph 5 mph 65.7% 0 in 742 W/m2
12:49 80.6 °F 68 °F 29.9 in ENE 2.2 mph 5 mph 65.6% 0 in 737 W/m2
12:54 81 °F 68.7 °F 29.9 in ENE 2.7 mph 6 mph 66.4% 0 in 751 W/m2
12:59 81 °F 68.5 °F 29.9 in SE 3.2 mph 6 mph 65.7% 0 in 752 W/m2
13:04 81.5 °F 68.5 °F 29.9 in ESE 2.4 mph 6 mph 65.1% 0 in 752 W/m2
13:09 81.7 °F 68 °F 29.9 in SE 1.9 mph 3.5 mph 63.6% 0 in 751 W/m2
13:14 81.5 °F 67.6 °F 29.9 in East 1.3 mph 3.5 mph 62.9% 0 in 758 W/m2
13:19 81.7 °F 68.7 °F 29.9 in NNE 1.4 mph 4 mph 64.8% 0 in 766 W/m2
13:23 82.4 °F 68.7 °F 29.9 in ENE 2.1 mph 4 mph 63.7% 0 in 766 W/m2
13:29 82.4 °F 68.4 °F 29.9 in NE 2.6 mph 4 mph 62.9% 0 in 758 W/m2
13:34 82.6 °F 68.7 °F 29.9 in East 1.6 mph 4 mph 62.9% 0 in 758 W/m2
13:39 82.9 °F 68.9 °F 29.9 in NE 1.4 mph 5 mph 63% 0 in 731 W/m2
13:44 83.1 °F 69.1 °F 29.9 in NE 2.8 mph 5 mph 62.8% 0 in 729 W/m2
13:49 83.1 °F 68.7 °F 29.9 in North 2.2 mph 5 mph 61.8% 0 in 733 W/m2
13:54 83.3 °F 69.1 °F 29.9 in NW 2.1 mph 7 mph 62.2% 0 in 742 W/m2
13:59 83.3 °F 68 °F 29.9 in NW 3 mph 7 mph 59.8% 0 in 691 W/m2
14:04 83.3 °F 68.5 °F 29.9 in WNW 1.4 mph 7 mph 61.3% 0 in 708 W/m2
14:09 83.7 °F 68.5 °F 29.9 in NW 2.1 mph 5 mph 60.3% 0 in 728 W/m2
14:14 83.3 °F 68.2 °F 29.9 in NW 2.8 mph 7 mph 60.6% 0 in 721 W/m2
14:19 84 °F 69.1 °F 29.9 in NNW 3 mph 7 mph 61% 0 in 721 W/m2
14:24 84.6 °F 69.1 °F 29.9 in WNW 2.4 mph 7 mph 59.8% 0 in 717 W/m2
14:29 83.8 °F 68.4 °F 29.9 in West 1.5 mph 4 mph 59.8% 0 in 717 W/m2
14:34 83.5 °F 69.1 °F 29.9 in SW 1.6 mph 4 mph 61.8% 0 in 666 W/m2
14:39 84 °F 69.6 °F 29.9 in North 1.7 mph 5 mph 62% 0 in 735 W/m2
14:44 84.2 °F 69.1 °F 29.9 in NNE 2.9 mph 6 mph 60.6% 0 in 749 W/m2
14:49 83.7 °F 68.5 °F 29.9 in NE 3.7 mph 8.1 mph 60.5% 0 in 745 W/m2
14:54 83.7 °F 68.9 °F 29.9 in NE 4 mph 8.1 mph 61.3% 0 in 735 W/m2
14:59 83.8 °F 69.3 °F 29.9 in ENE 3.6 mph 8 mph 61.9% 0 in 722 W/m2
15:04 83.8 °F 68.7 °F 29.9 in East 3.2 mph 5 mph 60.4% 0 in 714 W/m2
15:09 83.5 °F 68.7 °F 29.9 in SE 1.9 mph 7 mph 61.2% 0 in 717 W/m2
15:14 83.7 °F 69.4 °F 29.9 in ENE 2.2 mph 7 mph 62.2% 0 in 715 W/m2
15:19 84.2 °F 69.6 °F 29.9 in East 2.4 mph 7 mph 61.8% 0 in 710 W/m2
15:24 84.7 °F 69.6 °F 29.9 in NNE 2.8 mph 7 mph 60.5% 0 in 698 W/m2
15:29 84.7 °F 68.7 °F 29.9 in NE 3 mph 7 mph 59.1% 0 in 670 W/m2
15:34 84.4 °F 69.1 °F 29.9 in North 2.5 mph 7 mph 60.2% 0 in 631 W/m2
15:39 84.6 °F 69.4 °F 29.9 in NE 1.9 mph 5 mph 60.3% 0 in 647 W/m2
15:44 84.7 °F 70 °F 29.9 in NNE 2.2 mph 5 mph 61.2% 0 in 610 W/m2
15:49 84.9 °F 69.8 °F 29.9 in North 2.2 mph 5 mph 60.7% 0 in 615 W/m2
15:54 84.9 °F 69.4 °F 29.9 in ESE 2.4 mph 4.6 mph 60.1% 0 in 591 W/m2
15:59 84.2 °F 69.3 °F 29.9 in SE 1.9 mph 5 mph 60.9% 0 in 571 W/m2
16:04 84.2 °F 69.6 °F 29.9 in North 2.3 mph 5 mph 61.6% 0 in 580 W/m2
16:09 84.6 °F 69.8 °F 29.9 in NNW 1.8 mph 4 mph 61.2% 0 in 566 W/m2
16:14 85.1 °F 69.4 °F 29.9 in NNW 1.4 mph 3.5 mph 59.7% 0 in 612 W/m2
16:19 84.7 °F 69.3 °F 29.9 in ESE 2.3 mph 4 mph 60.1% 0 in 603 W/m2
16:24 84.7 °F 69.3 °F 29.9 in SE 2.2 mph 4 mph 59.9% 0 in 603 W/m2
16:29 84.9 °F 69.1 °F 29.9 in SSE 1.7 mph 4 mph 59.3% 0 in 580 W/m2
16:34 85.3 °F 68.5 °F 29.9 in West 2.6 mph 4 mph 57.5% 0 in 547 W/m2
16:39 84.9 °F 68.4 °F 29.9 in WSW 3.2 mph 5 mph 57.7% 0 in 448 W/m2
16:44 84.7 °F 68 °F 29.9 in West 1.9 mph 5 mph 57.5% 0 in 515 W/m2
16:49 85.3 °F 68.5 °F 29.9 in WNW 1.7 mph 5 mph 57.3% 0 in 541 W/m2
16:54 85.5 °F 68.9 °F 29.9 in WNW 1.4 mph 4 mph 57.6% 0 in 520 W/m2
16:59 85.1 °F 68.5 °F 29.9 in WNW 3.2 mph 6 mph 57.9% 0 in 343 W/m2
17:04 84.7 °F 68.9 °F 29.9 in WSW 2.5 mph 6 mph 59% 0 in 146 W/m2
17:09 84.6 °F 69.1 °F 29.9 in WSW 1.9 mph 6 mph 59.8% 0 in 125 W/m2
17:14 84.4 °F 68.5 °F 29.9 in SSW 1.7 mph 3.5 mph 59.4% 0 in 118 W/m2
17:19 84 °F 69.1 °F 29.9 in WSW 1.9 mph 4 mph 60.9% 0 in 113 W/m2
17:24 83.8 °F 69.4 °F 29.9 in WSW 2.8 mph 6 mph 62.2% 0 in 111 W/m2
17:29 83.3 °F 69.3 °F 29.9 in WSW 3.6 mph 6 mph 62.8% 0 in 118 W/m2
17:34 82.9 °F 68.7 °F 29.9 in WSW 3.5 mph 6 mph 62.6% 0 in 123 W/m2
17:39 82.6 °F 68.7 °F 29.9 in West 2.5 mph 5 mph 63.2% 0 in 125 W/m2
17:44 82.6 °F 68.7 °F 29.9 in West 2.1 mph 3.5 mph 63% 0 in 125 W/m2
17:49 82.9 °F 68.9 °F 29.9 in West 2 mph 4 mph 63% 0 in 121 W/m2
17:54 82.9 °F 68.9 °F 29.9 in West 2.2 mph 4 mph 62.8% 0 in 116 W/m2
17:59 82.8 °F 68.9 °F 29.9 in WSW 1.8 mph 3.5 mph 63% 0 in 109 W/m2
18:04 82.8 °F 69.3 °F 29.9 in WSW 1.1 mph 3.5 mph 64.1% 0 in 104 W/m2
18:09 82.2 °F 70 °F 29.9 in SSE 1.1 mph 4 mph 66.2% 0 in 100 W/m2
18:14 81.1 °F 70.7 °F 29.9 in East 2.5 mph 4 mph 71% 0 in 97 W/m2
18:19 80.6 °F 71.4 °F 29.9 in East 2.2 mph 3.5 mph 73.7% 0 in 93 W/m2
18:24 80.6 °F 71.4 °F 29.9 in ESE 2.7 mph 3.5 mph 74% 0 in 90 W/m2
18:29 80.6 °F 71.4 °F 29.9 in ESE 2.1 mph 3.5 mph 73.8% 0 in 88 W/m2
18:34 80.4 °F 71.1 °F 29.9 in ESE 1.5 mph 3.5 mph 73.3% 0 in 84 W/m2
18:39 81 °F 71.4 °F 29.9 in ESE 1.5 mph 2.3 mph 73.2% 0 in 83 W/m2
18:44 81 °F 71.4 °F 29.9 in ESE 1.3 mph 2.3 mph 72.5% 0 in 84 W/m2
18:49 80.8 °F 71.8 °F 29.9 in ESE 1.2 mph 2.3 mph 74.5% 0 in 88 W/m2
18:54 80.8 °F 71.4 °F 29.9 in ESE 0.6 mph 2.3 mph 73.7% 0 in 91 W/m2
18:59 81 °F 71.4 °F 29.9 in ESE 1.1 mph 2.3 mph 73.1% 0 in 95 W/m2
19:04 80.8 °F 71.4 °F 29.9 in ESE 2.1 mph 3.5 mph 73.1% 0 in 102 W/m2
19:09 80.8 °F 71.6 °F 29.9 in ESE 2.2 mph 3.5 mph 74% 0 in 148 W/m2
19:14 80.8 °F 71.4 °F 29.9 in ESE 1.7 mph 3.5 mph 73% 0 in 142 W/m2
19:19 81.1 °F 70.9 °F 29.9 in ESE 1.7 mph 3.5 mph 71.5% 0 in 125 W/m2
19:23 81.1 °F 70.9 °F 29.9 in SE 1.7 mph 3.5 mph 71.4% 0 in 107 W/m2
19:29 81 °F 70.7 °F 29.9 in SE 1.2 mph 3.5 mph 71.2% 0 in 91 W/m2
19:34 80.8 °F 70.7 °F 29.9 in East 1.6 mph 3.5 mph 71.2% 0 in 72 W/m2
19:39 80.6 °F 71.8 °F 29.9 in East 1.8 mph 3.5 mph 74.8% 0 in 53 W/m2
19:44 80.1 °F 72.3 °F 29.9 in East 1.7 mph 3 mph 77.5% 0 in 32 W/m2
19:49 79.7 °F 72 °F 29.9 in East 1.2 mph 2.3 mph 77.6% 0 in 25 W/m2
19:54 79.3 °F 72 °F 29.9 in East 1.2 mph 2.3 mph 77.9% 0 in 16 W/m2
19:59 79 °F 71.6 °F 29.9 in East 2.3 mph 3.5 mph 77.8% 0 in 9 W/m2
20:04 79 °F 71.1 °F 29.9 in ENE 2.8 mph 5 mph 77% 0 in 5 W/m2
20:09 78.8 °F 70.9 °F 29.9 in East 2.4 mph 5 mph 77% 0 in 0 W/m2
20:14 78.6 °F 71.1 °F 29.9 in East 2.1 mph 3.5 mph 77.7% 0 in 0 W/m2
20:19 78.4 °F 70.9 °F 29.9 in East 1.7 mph 3.5 mph 77.8% 0 in 0 W/m2
20:24 78.1 °F 70.5 °F 29.9 in East 1.6 mph 3.5 mph 77.3% 0 in 0 W/m2
20:29 77.9 °F 70.3 °F 29.9 in East 1.7 mph 3.5 mph 77.7% 0 in 0 W/m2
20:34 77.5 °F 70.2 °F 29.9 in East 1.7 mph 3.5 mph 78% 0 in 0 W/m2
20:39 77.5 °F 70.5 °F 29.9 in East 1.5 mph 3.5 mph 78.8% 0 in 0 W/m2
20:44 77.4 °F 70.3 °F 29.9 in East 1.4 mph 3 mph 79% 0 in 0 W/m2
20:49 77 °F 70.3 °F 29.9 in East 0.9 mph 2.3 mph 79.9% 0 in 0 W/m2
20:54 76.8 °F 70.2 °F 29.9 in East 0.2 mph 2 mph 80% 0 in 0 W/m2
20:59 76.6 °F 70.2 °F 29.9 in East 0.2 mph 1.2 mph 80.5% 0 in 0 W/m2
21:02 76.5 °F 70.5 °F 29.9 in East 0.6 mph 1.2 mph 81.9% 0 in 0 W/m2
21:09 76.1 °F 70.3 °F 29.9 in East 0.9 mph 2.3 mph 82% 0 in 0 W/m2
21:14 76.1 °F 70.2 °F 29.9 in East 0.8 mph 2.3 mph 82% 0 in 0 W/m2
21:19 76.1 °F 70 °F 29.9 in East 0.4 mph 1.2 mph 81.7% 0 in 0 W/m2
21:24 75.9 °F 70 °F 29.9 in East 0.2 mph 2.3 mph 82.2% 0 in 0 W/m2
21:29 75.7 °F 70 °F 29.9 in East 0.9 mph 2.3 mph 82.4% 0 in 0 W/m2
21:34 75.7 °F 70.3 °F 29.9 in East 0.7 mph 2.3 mph 83% 0 in 0 W/m2
21:39 75.7 °F 70.2 °F 29.9 in East 0.1 mph 2 mph 83% 0 in 0 W/m2
21:44 75.4 °F 70 °F 29.9 in East 0.1 mph 1.2 mph 83% 0 in 0 W/m2
21:49 75.2 °F 69.8 °F 29.9 in East 1 mph 2.3 mph 83.6% 0 in 0 W/m2
21:54 75 °F 69.6 °F 29.9 in East 1.7 mph 2.3 mph 83.3% 0 in 0 W/m2
21:59 75.2 °F 69.3 °F 29.9 in East 1.9 mph 3 mph 81.9% 0 in 0 W/m2
22:04 75 °F 69.1 °F 29.9 in East 2.9 mph 5 mph 81.4% 0 in 0 W/m2
22:09 74.8 °F 68.9 °F 29.9 in ENE 2.5 mph 5 mph 82.2% 0 in 0 W/m2
22:14 74.3 °F 68.9 °F 29.9 in ENE 1.5 mph 5 mph 83.2% 0 in 0 W/m2
22:19 73.9 °F 69.1 °F 29.9 in ENE 1.4 mph 3 mph 84.2% 0 in 0 W/m2
22:24 73.8 °F 68.9 °F 29.9 in ENE 1.5 mph 3.5 mph 85% 0 in 0 W/m2
22:29 73.8 °F 68.9 °F 29.9 in ENE 1.1 mph 3 mph 84.8% 0 in 0 W/m2
22:34 73.8 °F 69.1 °F 29.9 in NE 1.9 mph 3.5 mph 85% 0 in 0 W/m2
22:39 73.9 °F 69.1 °F 29.9 in NE 2.4 mph 3.5 mph 84.7% 0 in 0 W/m2
22:44 74.1 °F 69.1 °F 29.9 in ENE 1.4 mph 3.5 mph 84% 0 in 0 W/m2
22:49 74.1 °F 69.1 °F 29.9 in ENE 0.9 mph 3.5 mph 84% 0 in 0 W/m2
22:54 74.1 °F 69.1 °F 29.9 in NE 1.9 mph 3.5 mph 84% 0 in 0 W/m2
22:59 74.1 °F 68.9 °F 29.9 in NE 4 mph 13 mph 83.7% 0 in 0 W/m2
23:04 74.8 °F 68.7 °F 29.9 in ENE 6.1 mph 13 mph 81.3% 0 in 0 W/m2
23:09 74.8 °F 68.5 °F 29.9 in ENE 5.5 mph 12 mph 81% 0 in 0 W/m2
23:14 74.5 °F 68.5 °F 29.9 in ENE 4.4 mph 8.1 mph 81.8% 0 in 0 W/m2
23:19 74.3 °F 68.4 °F 29.9 in East 3.1 mph 8 mph 82% 0 in 0 W/m2
23:24 74.1 °F 68.4 °F 29.9 in East 3.2 mph 7 mph 82.2% 0 in 0 W/m2
23:29 73.9 °F 68.2 °F 29.9 in East 3.6 mph 7 mph 82% 0 in 0 W/m2
23:34 73.8 °F 68 °F 29.9 in East 3.5 mph 6 mph 82% 0 in 0 W/m2
23:39 73.6 °F 67.8 °F 29.9 in ENE 2.9 mph 6 mph 82% 0 in 0 W/m2
23:44 73.2 °F 67.5 °F 30 in ENE 2.8 mph 6 mph 82.3% 0 in 0 W/m2
23:49 73 °F 67.3 °F 30 in ESE 2.5 mph 5 mph 82.3% 0 in 0 W/m2
23:54 72.9 °F 66.4 °F 30 in ESE 4 mph 6 mph 80.4% 0 in 0 W/m2
23:59 72.7 °F 65.8 °F 30 in East 4 mph 5.8 mph 79.4% 0 in 0 W/m2
Stazione Meteorologica MeteoMincio Rivalta s/M (MN)
Con i complimenti di Weather Underground - 4 mb


METEO PILLOLE
Temperatura più bassa in un luogo abitato
Oymyakon (740m) - Russia
il 6 febbraio 1933 il termometro segnò -67.7°.

Do NOT follow this link or you will be banned from the site!